sensor_id;sensor_type;location;lat;lon;timestamp;temperature;humidity
43320;DHT22;28914;48.722;9.332;2023-01-29T00:03:03;5.10;75.20
43320;DHT22;28914;48.722;9.332;2023-01-29T00:08:24;5.10;75.30
43320;DHT22;28914;48.722;9.332;2023-01-29T00:13:43;5.10;75.20
43320;DHT22;28914;48.722;9.332;2023-01-29T00:19:03;5.10;75.20
43320;DHT22;28914;48.722;9.332;2023-01-29T00:24:21;5.10;75.20
43320;DHT22;28914;48.722;9.332;2023-01-29T00:29:41;5.10;75.20
43320;DHT22;28914;48.722;9.332;2023-01-29T00:35:00;5.10;75.00
43320;DHT22;28914;48.722;9.332;2023-01-29T00:40:19;5.10;75.00
43320;DHT22;28914;48.722;9.332;2023-01-29T00:45:38;5.10;75.00
43320;DHT22;28914;48.722;9.332;2023-01-29T00:50:57;5.10;74.90
43320;DHT22;28914;48.722;9.332;2023-01-29T00:56:17;5.10;75.00
43320;DHT22;28914;48.722;9.332;2023-01-29T01:01:36;5.00;75.00
43320;DHT22;28914;48.722;9.332;2023-01-29T01:07:14;5.10;75.10
43320;DHT22;28914;48.722;9.332;2023-01-29T01:12:34;5.10;75.00
43320;DHT22;28914;48.722;9.332;2023-01-29T01:17:54;5.10;74.90
43320;DHT22;28914;48.722;9.332;2023-01-29T01:23:14;5.10;74.90
43320;DHT22;28914;48.722;9.332;2023-01-29T01:28:33;5.10;74.80
43320;DHT22;28914;48.722;9.332;2023-01-29T01:33:54;5.10;74.70
43320;DHT22;28914;48.722;9.332;2023-01-29T01:39:13;5.10;74.40
43320;DHT22;28914;48.722;9.332;2023-01-29T01:44:54;5.10;74.30
43320;DHT22;28914;48.722;9.332;2023-01-29T01:50:28;5.10;74.10
43320;DHT22;28914;48.722;9.332;2023-01-29T01:55:53;5.10;74.30
43320;DHT22;28914;48.722;9.332;2023-01-29T02:01:13;5.10;74.60
43320;DHT22;28914;48.722;9.332;2023-01-29T02:06:34;5.10;74.40
43320;DHT22;28914;48.722;9.332;2023-01-29T02:12:13;5.10;74.30
43320;DHT22;28914;48.722;9.332;2023-01-29T02:17:33;5.00;74.30
43320;DHT22;28914;48.722;9.332;2023-01-29T02:23:27;5.00;74.40
43320;DHT22;28914;48.722;9.332;2023-01-29T02:28:58;5.00;74.40
43320;DHT22;28914;48.722;9.332;2023-01-29T02:34:55;5.00;74.50
43320;DHT22;28914;48.722;9.332;2023-01-29T02:46:38;4.90;74.20
43320;DHT22;28914;48.722;9.332;2023-01-29T02:52:01;4.80;74.20
43320;DHT22;28914;48.722;9.332;2023-01-29T02:57:22;4.80;74.20
43320;DHT22;28914;48.722;9.332;2023-01-29T03:08:27;4.70;74.20
43320;DHT22;28914;48.722;9.332;2023-01-29T03:14:14;4.80;74.10
43320;DHT22;28914;48.722;9.332;2023-01-29T03:19:38;4.70;73.90
43320;DHT22;28914;48.722;9.332;2023-01-29T03:25:00;4.70;73.80
43320;DHT22;28914;48.722;9.332;2023-01-29T03:30:54;4.60;73.80
43320;DHT22;28914;48.722;9.332;2023-01-29T03:36:43;4.60;74.00
43320;DHT22;28914;48.722;9.332;2023-01-29T03:42:26;4.60;74.00
43320;DHT22;28914;48.722;9.332;2023-01-29T03:48:15;4.60;73.90
43320;DHT22;28914;48.722;9.332;2023-01-29T03:53:47;4.60;73.90
43320;DHT22;28914;48.722;9.332;2023-01-29T04:00:13;4.60;73.80
43320;DHT22;28914;48.722;9.332;2023-01-29T04:05:05;4.60;74.10
43320;DHT22;28914;48.722;9.332;2023-01-29T04:10:29;4.70;74.00
43320;DHT22;28914;48.722;9.332;2023-01-29T04:15:54;4.70;74.00
43320;DHT22;28914;48.722;9.332;2023-01-29T04:21:15;4.60;74.10
43320;DHT22;28914;48.722;9.332;2023-01-29T04:32:28;4.70;74.10
43320;DHT22;28914;48.722;9.332;2023-01-29T04:38:16;4.70;73.80
43320;DHT22;28914;48.722;9.332;2023-01-29T04:55:05;4.70;73.90
43320;DHT22;28914;48.722;9.332;2023-01-29T05:00:29;4.70;74.00
43320;DHT22;28914;48.722;9.332;2023-01-29T05:05:51;4.70;74.00
43320;DHT22;28914;48.722;9.332;2023-01-29T05:11:11;4.80;74.00
43320;DHT22;28914;48.722;9.332;2023-01-29T05:16:37;4.80;74.00
43320;DHT22;28914;48.722;9.332;2023-01-29T05:22:04;4.80;73.70
43320;DHT22;28914;48.722;9.332;2023-01-29T05:27:31;4.80;73.70
43320;DHT22;28914;48.722;9.332;2023-01-29T05:33:22;4.80;73.70
43320;DHT22;28914;48.722;9.332;2023-01-29T05:38:42;4.80;73.70
43320;DHT22;28914;48.722;9.332;2023-01-29T05:44:01;4.80;73.50
43320;DHT22;28914;48.722;9.332;2023-01-29T05:49:20;4.80;73.50
43320;DHT22;28914;48.722;9.332;2023-01-29T05:54:40;4.70;73.50
43320;DHT22;28914;48.722;9.332;2023-01-29T05:59:59;4.70;73.40
43320;DHT22;28914;48.722;9.332;2023-01-29T06:05:19;4.70;73.50
43320;DHT22;28914;48.722;9.332;2023-01-29T06:10:38;4.70;73.40
43320;DHT22;28914;48.722;9.332;2023-01-29T06:15:57;4.70;73.40
43320;DHT22;28914;48.722;9.332;2023-01-29T06:21:16;4.70;73.50
43320;DHT22;28914;48.722;9.332;2023-01-29T06:26:35;4.70;73.50
43320;DHT22;28914;48.722;9.332;2023-01-29T06:31:54;4.70;73.50
43320;DHT22;28914;48.722;9.332;2023-01-29T06:37:14;4.70;73.40
43320;DHT22;28914;48.722;9.332;2023-01-29T06:42:36;4.60;73.30
43320;DHT22;28914;48.722;9.332;2023-01-29T06:47:55;4.60;73.20
43320;DHT22;28914;48.722;9.332;2023-01-29T06:53:15;4.60;73.20
43320;DHT22;28914;48.722;9.332;2023-01-29T06:58:37;4.50;74.10
43320;DHT22;28914;48.722;9.332;2023-01-29T07:03:56;4.50;73.20
43320;DHT22;28914;48.722;9.332;2023-01-29T07:09:16;4.50;73.30
43320;DHT22;28914;48.722;9.332;2023-01-29T07:14:35;4.50;73.50
43320;DHT22;28914;48.722;9.332;2023-01-29T07:19:54;4.50;73.30
43320;DHT22;28914;48.722;9.332;2023-01-29T07:25:13;4.50;73.40
43320;DHT22;28914;48.722;9.332;2023-01-29T07:30:33;4.50;73.30
43320;DHT22;28914;48.722;9.332;2023-01-29T07:35:52;4.50;73.30
43320;DHT22;28914;48.722;9.332;2023-01-29T07:41:11;4.50;73.40
43320;DHT22;28914;48.722;9.332;2023-01-29T07:46:30;4.50;73.40
43320;DHT22;28914;48.722;9.332;2023-01-29T07:51:49;4.60;73.30
43320;DHT22;28914;48.722;9.332;2023-01-29T07:57:09;4.60;73.30
43320;DHT22;28914;48.722;9.332;2023-01-29T08:02:28;4.70;73.40
43320;DHT22;28914;48.722;9.332;2023-01-29T08:07:52;4.80;74.30
43320;DHT22;28914;48.722;9.332;2023-01-29T08:13:12;4.90;73.40
43320;DHT22;28914;48.722;9.332;2023-01-29T08:18:31;4.90;72.30
43320;DHT22;28914;48.722;9.332;2023-01-29T08:23:51;5.00;73.10
43320;DHT22;28914;48.722;9.332;2023-01-29T08:29:10;5.00;73.10
43320;DHT22;28914;48.722;9.332;2023-01-29T08:34:30;5.10;72.80
43320;DHT22;28914;48.722;9.332;2023-01-29T08:39:49;5.10;72.80
43320;DHT22;28914;48.722;9.332;2023-01-29T08:45:09;5.20;72.80
43320;DHT22;28914;48.722;9.332;2023-01-29T08:50:28;5.20;72.80
43320;DHT22;28914;48.722;9.332;2023-01-29T08:55:48;5.20;72.70
43320;DHT22;28914;48.722;9.332;2023-01-29T09:01:09;5.30;72.50
43320;DHT22;28914;48.722;9.332;2023-01-29T09:06:29;5.30;72.40
43320;DHT22;28914;48.722;9.332;2023-01-29T09:11:48;5.30;72.40
43320;DHT22;28914;48.722;9.332;2023-01-29T09:17:07;5.30;72.10
43320;DHT22;28914;48.722;9.332;2023-01-29T09:22:27;5.30;72.00
43320;DHT22;28914;48.722;9.332;2023-01-29T09:27:46;5.40;72.10
43320;DHT22;28914;48.722;9.332;2023-01-29T09:33:06;5.50;72.10
43320;DHT22;28914;48.722;9.332;2023-01-29T09:38:25;5.60;72.30
43320;DHT22;28914;48.722;9.332;2023-01-29T09:43:46;5.70;72.10
43320;DHT22;28914;48.722;9.332;2023-01-29T09:49:17;5.70;71.70
43320;DHT22;28914;48.722;9.332;2023-01-29T09:55:02;5.80;71.50
43320;DHT22;28914;48.722;9.332;2023-01-29T10:00:23;5.90;71.00
43320;DHT22;28914;48.722;9.332;2023-01-29T10:05:49;6.00;71.00
43320;DHT22;28914;48.722;9.332;2023-01-29T10:11:31;6.10;70.10
43320;DHT22;28914;48.722;9.332;2023-01-29T10:17:24;6.20;69.20
43320;DHT22;28914;48.722;9.332;2023-01-29T10:23:23;6.20;68.90
43320;DHT22;28914;48.722;9.332;2023-01-29T10:28:44;6.40;68.10
43320;DHT22;28914;48.722;9.332;2023-01-29T10:34:10;6.50;67.30
43320;DHT22;28914;48.722;9.332;2023-01-29T10:39:31;6.50;67.30
43320;DHT22;28914;48.722;9.332;2023-01-29T10:45:22;6.60;67.70
43320;DHT22;28914;48.722;9.332;2023-01-29T10:50:55;6.70;67.40
43320;DHT22;28914;48.722;9.332;2023-01-29T11:01:38;6.90;67.90
43320;DHT22;28914;48.722;9.332;2023-01-29T11:06:58;7.00;67.50
43320;DHT22;28914;48.722;9.332;2023-01-29T11:12:28;7.10;67.20
43320;DHT22;28914;48.722;9.332;2023-01-29T11:18:06;7.20;67.60
43320;DHT22;28914;48.722;9.332;2023-01-29T11:23:32;7.30;67.80
43320;DHT22;28914;48.722;9.332;2023-01-29T11:28:51;7.40;67.10
43320;DHT22;28914;48.722;9.332;2023-01-29T11:34:22;7.50;67.30
43320;DHT22;28914;48.722;9.332;2023-01-29T11:39:44;7.60;67.30
43320;DHT22;28914;48.722;9.332;2023-01-29T11:45:26;7.70;67.40
43320;DHT22;28914;48.722;9.332;2023-01-29T11:50:52;7.80;67.00
43320;DHT22;28914;48.722;9.332;2023-01-29T11:56:32;8.00;66.20
43320;DHT22;28914;48.722;9.332;2023-01-29T12:01:53;8.10;65.00
43320;DHT22;28914;48.722;9.332;2023-01-29T12:07:15;8.10;65.20
43320;DHT22;28914;48.722;9.332;2023-01-29T12:12:40;8.20;65.10
43320;DHT22;28914;48.722;9.332;2023-01-29T12:18:20;8.30;65.10
43320;DHT22;28914;48.722;9.332;2023-01-29T12:23:56;8.30;65.30
43320;DHT22;28914;48.722;9.332;2023-01-29T12:40:48;8.70;64.00
43320;DHT22;28914;48.722;9.332;2023-01-29T12:46:17;8.80;63.20
43320;DHT22;28914;48.722;9.332;2023-01-29T12:51:48;8.80;63.70
43320;DHT22;28914;48.722;9.332;2023-01-29T13:08:44;8.90;62.70
43320;DHT22;28914;48.722;9.332;2023-01-29T13:14:22;8.80;62.70
43320;DHT22;28914;48.722;9.332;2023-01-29T13:19:45;8.80;62.60
43320;DHT22;28914;48.722;9.332;2023-01-29T13:25:14;8.80;62.80
43320;DHT22;28914;48.722;9.332;2023-01-29T13:30:35;8.70;62.80
43320;DHT22;28914;48.722;9.332;2023-01-29T13:35:58;8.60;62.40
43320;DHT22;28914;48.722;9.332;2023-01-29T13:41:18;8.50;62.60
43320;DHT22;28914;48.722;9.332;2023-01-29T13:46:39;8.40;62.30
43320;DHT22;28914;48.722;9.332;2023-01-29T14:08:36;8.10;62.70
43320;DHT22;28914;48.722;9.332;2023-01-29T14:13:56;8.10;63.50
43320;DHT22;28914;48.722;9.332;2023-01-29T14:19:17;8.10;63.70
43320;DHT22;28914;48.722;9.332;2023-01-29T14:24:41;8.10;63.80
43320;DHT22;28914;48.722;9.332;2023-01-29T14:30:06;8.10;64.00
43320;DHT22;28914;48.722;9.332;2023-01-29T14:35:30;8.10;63.80
43320;DHT22;28914;48.722;9.332;2023-01-29T14:41:03;8.10;63.40
43320;DHT22;28914;48.722;9.332;2023-01-29T14:51:51;7.90;63.20
43320;DHT22;28914;48.722;9.332;2023-01-29T14:57:14;7.90;63.40
43320;DHT22;28914;48.722;9.332;2023-01-29T15:02:40;7.80;62.70
43320;DHT22;28914;48.722;9.332;2023-01-29T15:13:41;7.50;63.00
43320;DHT22;28914;48.722;9.332;2023-01-29T15:19:35;7.40;63.20
43320;DHT22;28914;48.722;9.332;2023-01-29T15:25:13;7.20;62.80
43320;DHT22;28914;48.722;9.332;2023-01-29T15:30:33;7.10;63.80
43320;DHT22;28914;48.722;9.332;2023-01-29T15:36:00;7.00;64.00
43320;DHT22;28914;48.722;9.332;2023-01-29T15:41:20;6.80;64.20
43320;DHT22;28914;48.722;9.332;2023-01-29T15:46:44;6.70;64.50
43320;DHT22;28914;48.722;9.332;2023-01-29T15:52:19;6.50;64.80
43320;DHT22;28914;48.722;9.332;2023-01-29T15:57:40;6.30;65.10
43320;DHT22;28914;48.722;9.332;2023-01-29T16:02:59;6.20;65.30
43320;DHT22;28914;48.722;9.332;2023-01-29T16:08:20;6.00;65.50
43320;DHT22;28914;48.722;9.332;2023-01-29T16:13:41;5.80;65.80
43320;DHT22;28914;48.722;9.332;2023-01-29T16:19:19;5.70;66.10
43320;DHT22;28914;48.722;9.332;2023-01-29T16:24:39;5.50;66.50
43320;DHT22;28914;48.722;9.332;2023-01-29T16:29:59;5.30;66.60
43320;DHT22;28914;48.722;9.332;2023-01-29T16:35:20;5.10;67.00
43320;DHT22;28914;48.722;9.332;2023-01-29T16:41:03;4.90;67.20
43320;DHT22;28914;48.722;9.332;2023-01-29T16:46:36;4.70;67.50
43320;DHT22;28914;48.722;9.332;2023-01-29T16:57:46;4.30;68.10
43320;DHT22;28914;48.722;9.332;2023-01-29T17:03:10;4.10;68.40
43320;DHT22;28914;48.722;9.332;2023-01-29T17:08:32;4.00;68.70
43320;DHT22;28914;48.722;9.332;2023-01-29T17:13:54;3.90;69.00
43320;DHT22;28914;48.722;9.332;2023-01-29T17:19:17;3.70;69.20
43320;DHT22;28914;48.722;9.332;2023-01-29T17:24:37;3.60;69.60
43320;DHT22;28914;48.722;9.332;2023-01-29T17:29:56;3.50;69.80
43320;DHT22;28914;48.722;9.332;2023-01-29T17:35:16;3.50;70.10
43320;DHT22;28914;48.722;9.332;2023-01-29T17:41:18;3.30;70.20
43320;DHT22;28914;48.722;9.332;2023-01-29T17:46:38;3.20;70.80
43320;DHT22;28914;48.722;9.332;2023-01-29T17:51:58;3.10;71.00
43320;DHT22;28914;48.722;9.332;2023-01-29T17:57:17;3.00;71.20
43320;DHT22;28914;48.722;9.332;2023-01-29T18:02:37;2.90;71.30
43320;DHT22;28914;48.722;9.332;2023-01-29T18:07:56;2.80;71.50
43320;DHT22;28914;48.722;9.332;2023-01-29T18:13:15;2.70;71.60
43320;DHT22;28914;48.722;9.332;2023-01-29T18:18:35;2.70;71.80
43320;DHT22;28914;48.722;9.332;2023-01-29T18:23:54;2.60;72.00
43320;DHT22;28914;48.722;9.332;2023-01-29T18:29:13;2.50;72.30
43320;DHT22;28914;48.722;9.332;2023-01-29T18:34:32;2.50;72.50
43320;DHT22;28914;48.722;9.332;2023-01-29T18:39:52;2.40;72.70
43320;DHT22;28914;48.722;9.332;2023-01-29T18:45:12;2.30;72.90
43320;DHT22;28914;48.722;9.332;2023-01-29T18:50:32;2.30;73.10
43320;DHT22;28914;48.722;9.332;2023-01-29T18:55:56;2.20;73.20
43320;DHT22;28914;48.722;9.332;2023-01-29T19:01:16;2.20;73.60
43320;DHT22;28914;48.722;9.332;2023-01-29T19:06:35;2.20;73.60
43320;DHT22;28914;48.722;9.332;2023-01-29T19:11:54;2.10;73.60
43320;DHT22;28914;48.722;9.332;2023-01-29T19:17:14;2.10;73.60
43320;DHT22;28914;48.722;9.332;2023-01-29T19:22:33;2.00;73.70
43320;DHT22;28914;48.722;9.332;2023-01-29T19:27:52;1.90;73.90
43320;DHT22;28914;48.722;9.332;2023-01-29T19:33:11;1.90;74.20
43320;DHT22;28914;48.722;9.332;2023-01-29T19:38:31;1.80;74.20
43320;DHT22;28914;48.722;9.332;2023-01-29T19:43:51;1.80;74.70
43320;DHT22;28914;48.722;9.332;2023-01-29T19:49:11;1.70;74.70
43320;DHT22;28914;48.722;9.332;2023-01-29T19:54:30;1.70;74.80
43320;DHT22;28914;48.722;9.332;2023-01-29T19:59:49;1.70;74.80
43320;DHT22;28914;48.722;9.332;2023-01-29T20:05:09;1.60;74.70
43320;DHT22;28914;48.722;9.332;2023-01-29T20:10:30;1.60;75.00
43320;DHT22;28914;48.722;9.332;2023-01-29T20:15:51;1.50;75.10
43320;DHT22;28914;48.722;9.332;2023-01-29T20:21:13;1.40;75.10
43320;DHT22;28914;48.722;9.332;2023-01-29T20:26:33;1.40;75.10
43320;DHT22;28914;48.722;9.332;2023-01-29T20:31:52;1.40;75.20
43320;DHT22;28914;48.722;9.332;2023-01-29T20:37:11;1.30;75.30
43320;DHT22;28914;48.722;9.332;2023-01-29T20:42:30;1.20;75.30
43320;DHT22;28914;48.722;9.332;2023-01-29T20:47:50;1.20;75.30
43320;DHT22;28914;48.722;9.332;2023-01-29T20:53:10;1.10;75.40
43320;DHT22;28914;48.722;9.332;2023-01-29T20:58:29;1.10;75.60
43320;DHT22;28914;48.722;9.332;2023-01-29T21:03:49;1.00;75.70
43320;DHT22;28914;48.722;9.332;2023-01-29T21:09:08;1.00;76.20
43320;DHT22;28914;48.722;9.332;2023-01-29T21:14:27;1.00;76.20
43320;DHT22;28914;48.722;9.332;2023-01-29T21:19:46;1.00;76.70
43320;DHT22;28914;48.722;9.332;2023-01-29T21:25:07;0.90;76.90
43320;DHT22;28914;48.722;9.332;2023-01-29T21:30:26;0.90;76.80
43320;DHT22;28914;48.722;9.332;2023-01-29T21:35:45;0.90;76.70
43320;DHT22;28914;48.722;9.332;2023-01-29T21:41:07;0.80;76.60
43320;DHT22;28914;48.722;9.332;2023-01-29T21:46:27;0.80;76.70
43320;DHT22;28914;48.722;9.332;2023-01-29T21:51:46;0.80;76.70
43320;DHT22;28914;48.722;9.332;2023-01-29T21:57:10;0.80;76.90
43320;DHT22;28914;48.722;9.332;2023-01-29T22:02:29;0.70;76.80
43320;DHT22;28914;48.722;9.332;2023-01-29T22:07:49;0.60;77.00
43320;DHT22;28914;48.722;9.332;2023-01-29T22:13:09;0.60;77.20
43320;DHT22;28914;48.722;9.332;2023-01-29T22:18:28;0.60;77.30
43320;DHT22;28914;48.722;9.332;2023-01-29T22:23:47;0.50;77.50
43320;DHT22;28914;48.722;9.332;2023-01-29T22:29:13;0.50;77.60
43320;DHT22;28914;48.722;9.332;2023-01-29T22:34:34;0.50;77.70
43320;DHT22;28914;48.722;9.332;2023-01-29T22:39:54;0.50;77.60
43320;DHT22;28914;48.722;9.332;2023-01-29T22:45:13;0.50;77.60
43320;DHT22;28914;48.722;9.332;2023-01-29T22:50:32;0.40;78.50
43320;DHT22;28914;48.722;9.332;2023-01-29T22:55:54;0.40;77.60
43320;DHT22;28914;48.722;9.332;2023-01-29T23:01:17;0.40;77.70
43320;DHT22;28914;48.722;9.332;2023-01-29T23:06:36;0.40;78.00
43320;DHT22;28914;48.722;9.332;2023-01-29T23:11:56;0.30;78.50
43320;DHT22;28914;48.722;9.332;2023-01-29T23:17:15;0.30;78.90
43320;DHT22;28914;48.722;9.332;2023-01-29T23:22:34;0.30;78.70
43320;DHT22;28914;48.722;9.332;2023-01-29T23:27:53;0.20;79.40
43320;DHT22;28914;48.722;9.332;2023-01-29T23:33:12;0.20;78.50
43320;DHT22;28914;48.722;9.332;2023-01-29T23:38:32;0.20;78.40
43320;DHT22;28914;48.722;9.332;2023-01-29T23:43:51;0.20;78.40
43320;DHT22;28914;48.722;9.332;2023-01-29T23:49:11;0.10;78.50
43320;DHT22;28914;48.722;9.332;2023-01-29T23:54:30;0.10;78.70
43320;DHT22;28914;48.722;9.332;2023-01-29T23:59:49;0.10;78.60
